sensor_id;sensor_type;location;lat;lon;timestamp;temperature;humidity
2062;DHT22;11070;51.336;12.340;2022-08-05T00:02:07;25.60;99.90
2062;DHT22;11070;51.336;12.340;2022-08-05T00:04:33;25.50;99.90
2062;DHT22;11070;51.336;12.340;2022-08-05T00:06:59;25.50;99.90
2062;DHT22;11070;51.336;12.340;2022-08-05T00:09:24;25.40;99.90
2062;DHT22;11070;51.336;12.340;2022-08-05T00:11:50;25.40;99.90
2062;DHT22;11070;51.336;12.340;2022-08-05T00:14:17;25.40;99.90
2062;DHT22;11070;51.336;12.340;2022-08-05T00:16:46;25.30;99.90
2062;DHT22;11070;51.336;12.340;2022-08-05T00:19:13;25.20;99.90
2062;DHT22;11070;51.336;12.340;2022-08-05T00:21:38;25.10;99.90
2062;DHT22;11070;51.336;12.340;2022-08-05T00:24:04;25.10;99.90
2062;DHT22;11070;51.336;12.340;2022-08-05T00:26:30;25.10;99.90
2062;DHT22;11070;51.336;12.340;2022-08-05T00:28:55;25.00;99.90
2062;DHT22;11070;51.336;12.340;2022-08-05T00:31:21;25.10;99.90
2062;DHT22;11070;51.336;12.340;2022-08-05T00:33:48;25.00;99.90
2062;DHT22;11070;51.336;12.340;2022-08-05T00:36:13;24.90;99.90
2062;DHT22;11070;51.336;12.340;2022-08-05T00:38:39;24.90;99.90
2062;DHT22;11070;51.336;12.340;2022-08-05T00:41:05;24.80;99.90
2062;DHT22;11070;51.336;12.340;2022-08-05T00:43:34;24.80;99.90
2062;DHT22;11070;51.336;12.340;2022-08-05T00:45:59;24.70;99.90
2062;DHT22;11070;51.336;12.340;2022-08-05T00:48:25;24.60;99.90
2062;DHT22;11070;51.336;12.340;2022-08-05T00:50:53;24.60;99.90
2062;DHT22;11070;51.336;12.340;2022-08-05T00:53:21;24.50;99.90
2062;DHT22;11070;51.336;12.340;2022-08-05T00:55:47;24.50;99.90
2062;DHT22;11070;51.336;12.340;2022-08-05T00:58:14;24.40;99.90
2062;DHT22;11070;51.336;12.340;2022-08-05T01:00:44;24.40;99.90
2062;DHT22;11070;51.336;12.340;2022-08-05T01:03:11;24.40;99.90
2062;DHT22;11070;51.336;12.340;2022-08-05T01:05:37;24.40;99.90
2062;DHT22;11070;51.336;12.340;2022-08-05T01:08:03;24.30;99.90
2062;DHT22;11070;51.336;12.340;2022-08-05T01:10:57;24.30;99.90
2062;DHT22;11070;51.336;12.340;2022-08-05T01:13:36;24.30;99.90
2062;DHT22;11070;51.336;12.340;2022-08-05T01:16:08;24.30;99.90
2062;DHT22;11070;51.336;12.340;2022-08-05T01:18:41;24.30;99.90
2062;DHT22;11070;51.336;12.340;2022-08-05T01:26:59;24.20;99.90
2062;DHT22;11070;51.336;12.340;2022-08-05T01:29:39;24.10;1.00
2062;DHT22;11070;51.336;12.340;2022-08-05T01:32:09;24.10;1.00
2062;DHT22;11070;51.336;12.340;2022-08-05T01:35:01;24.10;1.00
2062;DHT22;11070;51.336;12.340;2022-08-05T01:37:49;24.10;1.00
2062;DHT22;11070;51.336;12.340;2022-08-05T01:40:17;24.10;1.00
2062;DHT22;11070;51.336;12.340;2022-08-05T01:42:45;24.00;1.00
2062;DHT22;11070;51.336;12.340;2022-08-05T01:45:12;23.90;1.00
2062;DHT22;11070;51.336;12.340;2022-08-05T01:47:39;23.90;1.00
2062;DHT22;11070;51.336;12.340;2022-08-05T01:50:12;23.80;1.00
2062;DHT22;11070;51.336;12.340;2022-08-05T01:52:39;23.70;1.00
2062;DHT22;11070;51.336;12.340;2022-08-05T01:55:08;23.60;1.00
2062;DHT22;11070;51.336;12.340;2022-08-05T01:57:44;23.50;1.00
2062;DHT22;11070;51.336;12.340;2022-08-05T02:00:10;23.50;1.00
2062;DHT22;11070;51.336;12.340;2022-08-05T02:02:40;23.50;1.00
2062;DHT22;11070;51.336;12.340;2022-08-05T02:05:10;23.40;1.00
2062;DHT22;11070;51.336;12.340;2022-08-05T02:07:37;23.40;1.00
2062;DHT22;11070;51.336;12.340;2022-08-05T02:10:04;23.30;21.20
2062;DHT22;11070;51.336;12.340;2022-08-05T02:15:26;23.20;99.90
2062;DHT22;11070;51.336;12.340;2022-08-05T02:18:09;23.20;99.90
2062;DHT22;11070;51.336;12.340;2022-08-05T02:20:48;23.20;99.90
2062;DHT22;11070;51.336;12.340;2022-08-05T02:23:19;23.20;99.90
2062;DHT22;11070;51.336;12.340;2022-08-05T02:25:48;23.20;99.90
2062;DHT22;11070;51.336;12.340;2022-08-05T02:28:22;23.10;99.90
2062;DHT22;11070;51.336;12.340;2022-08-05T02:30:59;23.10;99.90
2062;DHT22;11070;51.336;12.340;2022-08-05T02:33:26;23.10;99.90
2062;DHT22;11070;51.336;12.340;2022-08-05T02:35:55;23.00;99.90
2062;DHT22;11070;51.336;12.340;2022-08-05T02:38:22;23.00;99.90
2062;DHT22;11070;51.336;12.340;2022-08-05T02:40:48;23.00;99.90
2062;DHT22;11070;51.336;12.340;2022-08-05T02:43:15;22.90;99.90
2062;DHT22;11070;51.336;12.340;2022-08-05T02:45:43;22.90;1.00
2062;DHT22;11070;51.336;12.340;2022-08-05T02:48:11;22.90;1.00
2062;DHT22;11070;51.336;12.340;2022-08-05T02:50:37;22.80;1.00
2062;DHT22;11070;51.336;12.340;2022-08-05T02:53:03;22.80;1.00
2062;DHT22;11070;51.336;12.340;2022-08-05T02:55:31;22.70;1.00
2062;DHT22;11070;51.336;12.340;2022-08-05T02:57:58;22.70;1.00
2062;DHT22;11070;51.336;12.340;2022-08-05T03:00:25;22.70;1.00
2062;DHT22;11070;51.336;12.340;2022-08-05T03:02:52;22.70;1.00
2062;DHT22;11070;51.336;12.340;2022-08-05T03:05:18;22.70;1.00
2062;DHT22;11070;51.336;12.340;2022-08-05T03:07:45;22.60;1.00
2062;DHT22;11070;51.336;12.340;2022-08-05T03:10:14;22.60;1.00
2062;DHT22;11070;51.336;12.340;2022-08-05T03:12:49;22.60;1.00
2062;DHT22;11070;51.336;12.340;2022-08-05T03:15:14;22.60;1.00
2062;DHT22;11070;51.336;12.340;2022-08-05T03:17:40;22.60;1.00
2062;DHT22;11070;51.336;12.340;2022-08-05T03:20:06;22.60;1.00
2062;DHT22;11070;51.336;12.340;2022-08-05T03:22:32;22.70;1.00
2062;DHT22;11070;51.336;12.340;2022-08-05T03:24:58;22.60;1.00
2062;DHT22;11070;51.336;12.340;2022-08-05T03:27:25;22.60;1.00
2062;DHT22;11070;51.336;12.340;2022-08-05T03:29:51;22.60;1.00
2062;DHT22;11070;51.336;12.340;2022-08-05T03:32:17;22.60;1.00
2062;DHT22;11070;51.336;12.340;2022-08-05T03:34:44;22.60;1.00
2062;DHT22;11070;51.336;12.340;2022-08-05T03:37:10;22.60;1.00
2062;DHT22;11070;51.336;12.340;2022-08-05T03:39:36;22.60;19.80
2062;DHT22;11070;51.336;12.340;2022-08-05T03:42:02;22.50;15.30
2062;DHT22;11070;51.336;12.340;2022-08-05T03:44:28;22.50;97.10
2062;DHT22;11070;51.336;12.340;2022-08-05T03:46:54;22.50;99.90
2062;DHT22;11070;51.336;12.340;2022-08-05T03:49:20;22.50;99.90
2062;DHT22;11070;51.336;12.340;2022-08-05T03:51:59;22.50;43.40
2062;DHT22;11070;51.336;12.340;2022-08-05T03:56:57;22.40;99.90
2062;DHT22;11070;51.336;12.340;2022-08-05T03:59:38;22.40;99.90
2062;DHT22;11070;51.336;12.340;2022-08-05T04:02:06;22.40;99.90
2062;DHT22;11070;51.336;12.340;2022-08-05T04:04:33;22.40;1.00
2062;DHT22;11070;51.336;12.340;2022-08-05T04:06:59;22.40;99.90
2062;DHT22;11070;51.336;12.340;2022-08-05T04:09:27;22.40;99.90
2062;DHT22;11070;51.336;12.340;2022-08-05T04:11:54;22.40;1.00
2062;DHT22;11070;51.336;12.340;2022-08-05T04:14:21;22.40;1.00
2062;DHT22;11070;51.336;12.340;2022-08-05T04:16:47;22.30;1.00
2062;DHT22;11070;51.336;12.340;2022-08-05T04:19:13;22.30;9.10
2062;DHT22;11070;51.336;12.340;2022-08-05T04:24:38;22.30;1.00
2062;DHT22;11070;51.336;12.340;2022-08-05T04:27:04;22.30;1.00
2062;DHT22;11070;51.336;12.340;2022-08-05T04:29:30;22.40;1.00
2062;DHT22;11070;51.336;12.340;2022-08-05T04:31:55;22.30;1.00
2062;DHT22;11070;51.336;12.340;2022-08-05T04:34:21;22.40;1.00
2062;DHT22;11070;51.336;12.340;2022-08-05T04:36:47;22.50;1.00
2062;DHT22;11070;51.336;12.340;2022-08-05T04:39:13;22.60;99.90
2062;DHT22;11070;51.336;12.340;2022-08-05T04:41:38;22.80;1.00
2062;DHT22;11070;51.336;12.340;2022-08-05T04:44:04;22.90;1.00
2062;DHT22;11070;51.336;12.340;2022-08-05T04:46:53;22.80;1.00
2062;DHT22;11070;51.336;12.340;2022-08-05T04:49:46;22.80;1.00
2062;DHT22;11070;51.336;12.340;2022-08-05T04:52:12;22.90;1.00
2062;DHT22;11070;51.336;12.340;2022-08-05T04:54:38;22.90;1.00
2062;DHT22;11070;51.336;12.340;2022-08-05T04:57:03;23.00;1.00
2062;DHT22;11070;51.336;12.340;2022-08-05T04:59:29;23.00;1.00
2062;DHT22;11070;51.336;12.340;2022-08-05T05:01:55;23.00;99.90
2062;DHT22;11070;51.336;12.340;2022-08-05T05:04:23;23.00;99.90
2062;DHT22;11070;51.336;12.340;2022-08-05T05:06:49;23.00;99.90
2062;DHT22;11070;51.336;12.340;2022-08-05T05:09:14;22.90;1.00
2062;DHT22;11070;51.336;12.340;2022-08-05T05:11:40;23.00;99.90
2062;DHT22;11070;51.336;12.340;2022-08-05T05:14:06;23.00;1.00
2062;DHT22;11070;51.336;12.340;2022-08-05T05:16:32;23.10;1.00
2062;DHT22;11070;51.336;12.340;2022-08-05T05:18:57;23.10;1.00
2062;DHT22;11070;51.336;12.340;2022-08-05T05:21:23;23.10;1.00
2062;DHT22;11070;51.336;12.340;2022-08-05T05:23:49;23.20;1.00
2062;DHT22;11070;51.336;12.340;2022-08-05T05:26:15;23.30;1.00
2062;DHT22;11070;51.336;12.340;2022-08-05T05:28:41;23.30;1.00
2062;DHT22;11070;51.336;12.340;2022-08-05T05:31:07;23.40;1.00
2062;DHT22;11070;51.336;12.340;2022-08-05T05:33:32;23.50;1.00
2062;DHT22;11070;51.336;12.340;2022-08-05T05:35:58;23.40;99.90
2062;DHT22;11070;51.336;12.340;2022-08-05T05:38:24;23.50;24.90
2062;DHT22;11070;51.336;12.340;2022-08-05T05:40:50;23.50;99.90
2062;DHT22;11070;51.336;12.340;2022-08-05T05:43:16;23.60;96.60
2062;DHT22;11070;51.336;12.340;2022-08-05T05:45:42;23.70;1.00
2062;DHT22;11070;51.336;12.340;2022-08-05T05:48:07;23.80;1.00
2062;DHT22;11070;51.336;12.340;2022-08-05T05:50:34;23.80;1.00
2062;DHT22;11070;51.336;12.340;2022-08-05T05:53:01;23.70;1.00
2062;DHT22;11070;51.336;12.340;2022-08-05T05:55:26;23.50;99.90
2062;DHT22;11070;51.336;12.340;2022-08-05T05:57:52;23.60;99.90
2062;DHT22;11070;51.336;12.340;2022-08-05T06:00:19;23.70;40.70
2062;DHT22;11070;51.336;12.340;2022-08-05T06:02:51;23.90;1.00
2062;DHT22;11070;51.336;12.340;2022-08-05T06:05:16;24.10;1.00
2062;DHT22;11070;51.336;12.340;2022-08-05T06:07:46;24.30;99.90
2062;DHT22;11070;51.336;12.340;2022-08-05T06:10:12;24.50;99.90
2062;DHT22;11070;51.336;12.340;2022-08-05T06:12:39;24.70;99.90
2062;DHT22;11070;51.336;12.340;2022-08-05T06:15:08;25.00;14.60
2062;DHT22;11070;51.336;12.340;2022-08-05T06:17:34;25.20;1.00
2062;DHT22;11070;51.336;12.340;2022-08-05T06:20:00;25.20;1.00
2062;DHT22;11070;51.336;12.340;2022-08-05T06:22:33;25.10;1.00
2062;DHT22;11070;51.336;12.340;2022-08-05T06:25:00;25.00;1.00
2062;DHT22;11070;51.336;12.340;2022-08-05T06:27:25;25.00;1.00
2062;DHT22;11070;51.336;12.340;2022-08-05T06:29:51;24.90;1.00
2062;DHT22;11070;51.336;12.340;2022-08-05T06:32:17;24.80;1.00
2062;DHT22;11070;51.336;12.340;2022-08-05T06:34:43;24.80;1.00
2062;DHT22;11070;51.336;12.340;2022-08-05T06:37:09;24.70;53.30
2062;DHT22;11070;51.336;12.340;2022-08-05T06:39:35;24.60;99.90
2062;DHT22;11070;51.336;12.340;2022-08-05T06:42:08;24.50;99.90
2062;DHT22;11070;51.336;12.340;2022-08-05T06:44:34;24.40;99.90
2062;DHT22;11070;51.336;12.340;2022-08-05T06:46:59;24.30;99.90
2062;DHT22;11070;51.336;12.340;2022-08-05T06:49:25;24.20;1.00
2062;DHT22;11070;51.336;12.340;2022-08-05T06:51:54;24.20;1.00
2062;DHT22;11070;51.336;12.340;2022-08-05T06:54:20;24.20;99.90
2062;DHT22;11070;51.336;12.340;2022-08-05T06:56:49;24.10;99.90
2062;DHT22;11070;51.336;12.340;2022-08-05T06:59:15;24.20;99.90
2062;DHT22;11070;51.336;12.340;2022-08-05T07:01:47;24.10;1.00
2062;DHT22;11070;51.336;12.340;2022-08-05T07:04:13;24.20;1.00
2062;DHT22;11070;51.336;12.340;2022-08-05T07:06:39;24.30;1.00
2062;DHT22;11070;51.336;12.340;2022-08-05T07:09:06;24.50;99.90
2062;DHT22;11070;51.336;12.340;2022-08-05T07:11:33;24.60;34.40
2062;DHT22;11070;51.336;12.340;2022-08-05T07:13:59;24.70;1.00
2062;DHT22;11070;51.336;12.340;2022-08-05T07:16:49;24.80;1.00
2062;DHT22;11070;51.336;12.340;2022-08-05T07:19:20;25.00;1.00
2062;DHT22;11070;51.336;12.340;2022-08-05T07:21:47;25.20;99.90
2062;DHT22;11070;51.336;12.340;2022-08-05T07:24:14;25.40;13.60
2062;DHT22;11070;51.336;12.340;2022-08-05T07:26:41;25.30;14.00
2062;DHT22;11070;51.336;12.340;2022-08-05T07:29:07;25.10;9.70
2062;DHT22;11070;51.336;12.340;2022-08-05T07:31:33;25.00;47.50
2062;DHT22;11070;51.336;12.340;2022-08-05T07:33:59;25.10;1.00
2062;DHT22;11070;51.336;12.340;2022-08-05T07:36:25;25.20;1.00
2062;DHT22;11070;51.336;12.340;2022-08-05T07:38:52;25.30;1.00
2062;DHT22;11070;51.336;12.340;2022-08-05T07:41:21;25.50;1.00
2062;DHT22;11070;51.336;12.340;2022-08-05T07:43:47;25.70;1.00
2062;DHT22;11070;51.336;12.340;2022-08-05T07:46:13;25.90;1.00
2062;DHT22;11070;51.336;12.340;2022-08-05T07:48:40;26.00;1.00
2062;DHT22;11070;51.336;12.340;2022-08-05T07:51:06;26.10;1.00
2062;DHT22;11070;51.336;12.340;2022-08-05T07:53:32;26.30;1.00
2062;DHT22;11070;51.336;12.340;2022-08-05T07:56:02;26.40;1.00
2062;DHT22;11070;51.336;12.340;2022-08-05T07:58:28;26.30;1.00
2062;DHT22;11070;51.336;12.340;2022-08-05T08:00:54;26.40;1.00
2062;DHT22;11070;51.336;12.340;2022-08-05T08:03:20;26.50;1.00
2062;DHT22;11070;51.336;12.340;2022-08-05T08:05:46;26.50;1.00
2062;DHT22;11070;51.336;12.340;2022-08-05T08:08:16;26.50;1.00
2062;DHT22;11070;51.336;12.340;2022-08-05T08:10:41;26.70;1.00
2062;DHT22;11070;51.336;12.340;2022-08-05T08:13:08;26.50;1.00
2062;DHT22;11070;51.336;12.340;2022-08-05T08:15:35;26.00;1.00
2062;DHT22;11070;51.336;12.340;2022-08-05T08:18:01;26.20;1.00
2062;DHT22;11070;51.336;12.340;2022-08-05T08:20:27;26.40;1.00
2062;DHT22;11070;51.336;12.340;2022-08-05T08:22:57;26.80;1.00
2062;DHT22;11070;51.336;12.340;2022-08-05T08:25:29;27.20;1.00
2062;DHT22;11070;51.336;12.340;2022-08-05T08:27:55;27.50;1.00
2062;DHT22;11070;51.336;12.340;2022-08-05T08:30:24;27.70;99.90
2062;DHT22;11070;51.336;12.340;2022-08-05T08:32:53;27.20;99.90
2062;DHT22;11070;51.336;12.340;2022-08-05T08:35:20;26.90;1.00
2062;DHT22;11070;51.336;12.340;2022-08-05T08:37:48;27.10;1.00
2062;DHT22;11070;51.336;12.340;2022-08-05T08:40:14;27.80;99.90
2062;DHT22;11070;51.336;12.340;2022-08-05T08:42:42;28.00;99.90
2062;DHT22;11070;51.336;12.340;2022-08-05T08:45:13;27.90;99.90
2062;DHT22;11070;51.336;12.340;2022-08-05T08:47:41;27.60;99.90
2062;DHT22;11070;51.336;12.340;2022-08-05T08:50:11;27.70;99.90
2062;DHT22;11070;51.336;12.340;2022-08-05T08:52:38;27.80;99.90
2062;DHT22;11070;51.336;12.340;2022-08-05T08:55:07;27.90;99.90
2062;DHT22;11070;51.336;12.340;2022-08-05T08:57:33;28.00;99.90
2062;DHT22;11070;51.336;12.340;2022-08-05T08:59:59;28.10;99.90
2062;DHT22;11070;51.336;12.340;2022-08-05T09:02:26;27.90;99.90
2062;DHT22;11070;51.336;12.340;2022-08-05T09:04:52;28.10;99.90
2062;DHT22;11070;51.336;12.340;2022-08-05T09:07:18;28.80;99.90
2062;DHT22;11070;51.336;12.340;2022-08-05T09:09:44;29.40;99.90
2062;DHT22;11070;51.336;12.340;2022-08-05T09:12:10;30.10;99.90
2062;DHT22;11070;51.336;12.340;2022-08-05T09:14:37;30.60;99.90
2062;DHT22;11070;51.336;12.340;2022-08-05T09:17:08;31.00;99.90
2062;DHT22;11070;51.336;12.340;2022-08-05T09:19:39;31.30;99.90
2062;DHT22;11070;51.336;12.340;2022-08-05T09:22:14;31.60;99.90
2062;DHT22;11070;51.336;12.340;2022-08-05T09:24:40;32.00;99.90
2062;DHT22;11070;51.336;12.340;2022-08-05T09:27:09;32.30;99.90
2062;DHT22;11070;51.336;12.340;2022-08-05T09:29:43;32.30;99.90
2062;DHT22;11070;51.336;12.340;2022-08-05T09:32:20;31.60;99.90
2062;DHT22;11070;51.336;12.340;2022-08-05T09:35:26;30.80;99.90
2062;DHT22;11070;51.336;12.340;2022-08-05T09:37:55;29.90;99.90
2062;DHT22;11070;51.336;12.340;2022-08-05T09:40:37;30.00;99.90
2062;DHT22;11070;51.336;12.340;2022-08-05T09:57:38;30.70;99.90
2062;DHT22;11070;51.336;12.340;2022-08-05T10:00:11;31.00;99.90
2062;DHT22;11070;51.336;12.340;2022-08-05T10:02:46;31.30;99.90
2062;DHT22;11070;51.336;12.340;2022-08-05T10:05:15;31.80;99.90
2062;DHT22;11070;51.336;12.340;2022-08-05T10:10:24;33.30;99.90
2062;DHT22;11070;51.336;12.340;2022-08-05T10:12:54;33.30;99.90
2062;DHT22;11070;51.336;12.340;2022-08-05T10:15:25;32.80;99.90
2062;DHT22;11070;51.336;12.340;2022-08-05T10:18:22;32.70;99.90
2062;DHT22;11070;51.336;12.340;2022-08-05T10:21:19;32.50;99.90
2062;DHT22;11070;51.336;12.340;2022-08-05T10:23:47;32.40;99.90
2062;DHT22;11070;51.336;12.340;2022-08-05T10:26:17;32.20;99.90
2062;DHT22;11070;51.336;12.340;2022-08-05T10:28:46;32.00;99.90
2062;DHT22;11070;51.336;12.340;2022-08-05T10:31:14;31.80;99.90
2062;DHT22;11070;51.336;12.340;2022-08-05T10:33:44;31.60;99.90
2062;DHT22;11070;51.336;12.340;2022-08-05T10:36:14;31.80;99.90
2062;DHT22;11070;51.336;12.340;2022-08-05T10:38:45;31.80;99.90
2062;DHT22;11070;51.336;12.340;2022-08-05T10:41:14;31.60;99.90
2062;DHT22;11070;51.336;12.340;2022-08-05T10:44:08;32.20;99.90
2062;DHT22;11070;51.336;12.340;2022-08-05T10:46:47;32.90;99.90
2062;DHT22;11070;51.336;12.340;2022-08-05T10:49:15;33.10;99.90
2062;DHT22;11070;51.336;12.340;2022-08-05T10:51:46;33.20;99.90
2062;DHT22;11070;51.336;12.340;2022-08-05T10:54:13;33.30;99.90
2062;DHT22;11070;51.336;12.340;2022-08-05T10:56:50;33.20;99.90
2062;DHT22;11070;51.336;12.340;2022-08-05T10:59:24;33.20;99.90
2062;DHT22;11070;51.336;12.340;2022-08-05T11:02:08;33.10;99.90
2062;DHT22;11070;51.336;12.340;2022-08-05T11:04:54;33.20;99.90
2062;DHT22;11070;51.336;12.340;2022-08-05T11:07:20;33.40;99.90
2062;DHT22;11070;51.336;12.340;2022-08-05T11:09:51;34.10;99.90
2062;DHT22;11070;51.336;12.340;2022-08-05T11:15:32;34.90;99.90
2062;DHT22;11070;51.336;12.340;2022-08-05T11:18:28;35.30;99.90
2062;DHT22;11070;51.336;12.340;2022-08-05T11:20:57;35.60;99.90
2062;DHT22;11070;51.336;12.340;2022-08-05T11:23:34;36.10;99.90
2062;DHT22;11070;51.336;12.340;2022-08-05T11:36:10;35.70;99.90
2062;DHT22;11070;51.336;12.340;2022-08-05T11:41:09;36.00;99.90
2062;DHT22;11070;51.336;12.340;2022-08-05T11:43:38;36.00;99.90
2062;DHT22;11070;51.336;12.340;2022-08-05T11:46:08;36.70;99.90
2062;DHT22;11070;51.336;12.340;2022-08-05T11:48:33;37.20;99.90
2062;DHT22;11070;51.336;12.340;2022-08-05T11:51:00;37.90;99.90
2062;DHT22;11070;51.336;12.340;2022-08-05T11:53:26;38.10;99.90
2062;DHT22;11070;51.336;12.340;2022-08-05T11:56:01;38.50;99.90
2062;DHT22;11070;51.336;12.340;2022-08-05T11:58:53;38.70;99.90
2062;DHT22;11070;51.336;12.340;2022-08-05T12:01:20;39.20;99.90
2062;DHT22;11070;51.336;12.340;2022-08-05T12:06:17;39.50;99.90
2062;DHT22;11070;51.336;12.340;2022-08-05T12:08:45;39.70;99.90
2062;DHT22;11070;51.336;12.340;2022-08-05T12:11:42;40.10;99.90
2062;DHT22;11070;51.336;12.340;2022-08-05T12:14:15;39.40;99.90
2062;DHT22;11070;51.336;12.340;2022-08-05T12:16:43;36.90;99.90
2062;DHT22;11070;51.336;12.340;2022-08-05T12:19:13;36.10;99.90
2062;DHT22;11070;51.336;12.340;2022-08-05T12:22:01;36.80;99.90
2062;DHT22;11070;51.336;12.340;2022-08-05T12:24:27;37.20;99.90
2062;DHT22;11070;51.336;12.340;2022-08-05T12:26:56;37.40;99.90
2062;DHT22;11070;51.336;12.340;2022-08-05T12:29:26;37.00;99.90
2062;DHT22;11070;51.336;12.340;2022-08-05T12:31:57;36.90;99.90
2062;DHT22;11070;51.336;12.340;2022-08-05T12:34:29;36.50;99.90
2062;DHT22;11070;51.336;12.340;2022-08-05T12:36:57;36.40;99.90
2062;DHT22;11070;51.336;12.340;2022-08-05T12:39:24;36.70;99.90
2062;DHT22;11070;51.336;12.340;2022-08-05T12:41:56;36.80;99.90
2062;DHT22;11070;51.336;12.340;2022-08-05T12:44:28;37.10;99.90
2062;DHT22;11070;51.336;12.340;2022-08-05T12:46:55;37.40;99.90
2062;DHT22;11070;51.336;12.340;2022-08-05T12:49:24;37.90;99.90
2062;DHT22;11070;51.336;12.340;2022-08-05T12:52:01;38.30;99.90
2062;DHT22;11070;51.336;12.340;2022-08-05T12:54:29;39.00;99.90
2062;DHT22;11070;51.336;12.340;2022-08-05T12:57:04;38.90;99.90
2062;DHT22;11070;51.336;12.340;2022-08-05T13:02:10;37.80;99.90
2062;DHT22;11070;51.336;12.340;2022-08-05T13:04:41;37.90;99.90
2062;DHT22;11070;51.336;12.340;2022-08-05T13:07:49;38.00;99.90
2062;DHT22;11070;51.336;12.340;2022-08-05T13:10:15;37.40;99.90
2062;DHT22;11070;51.336;12.340;2022-08-05T13:12:44;36.70;99.90
2062;DHT22;11070;51.336;12.340;2022-08-05T13:15:12;36.30;99.90
2062;DHT22;11070;51.336;12.340;2022-08-05T13:17:52;35.70;99.90
2062;DHT22;11070;51.336;12.340;2022-08-05T13:20:19;34.80;99.90
2062;DHT22;11070;51.336;12.340;2022-08-05T13:22:49;34.40;99.90
2062;DHT22;11070;51.336;12.340;2022-08-05T13:25:16;34.10;99.90
2062;DHT22;11070;51.336;12.340;2022-08-05T13:27:47;33.50;99.90
2062;DHT22;11070;51.336;12.340;2022-08-05T13:30:16;33.00;99.90
2062;DHT22;11070;51.336;12.340;2022-08-05T13:32:43;32.80;99.90
2062;DHT22;11070;51.336;12.340;2022-08-05T13:35:13;32.50;99.90
2062;DHT22;11070;51.336;12.340;2022-08-05T13:37:39;32.60;99.90
2062;DHT22;11070;51.336;12.340;2022-08-05T13:40:07;32.60;99.90
2062;DHT22;11070;51.336;12.340;2022-08-05T13:42:33;32.70;99.90
2062;DHT22;11070;51.336;12.340;2022-08-05T13:44:59;32.90;99.90
2062;DHT22;11070;51.336;12.340;2022-08-05T13:47:26;33.70;99.90
2062;DHT22;11070;51.336;12.340;2022-08-05T13:49:52;34.60;99.90
2062;DHT22;11070;51.336;12.340;2022-08-05T13:52:20;35.20;99.90
2062;DHT22;11070;51.336;12.340;2022-08-05T13:54:47;35.80;99.90
2062;DHT22;11070;51.336;12.340;2022-08-05T13:57:13;36.00;99.90
2062;DHT22;11070;51.336;12.340;2022-08-05T13:59:45;36.00;99.90
2062;DHT22;11070;51.336;12.340;2022-08-05T14:02:13;35.80;99.90
2062;DHT22;11070;51.336;12.340;2022-08-05T14:04:45;35.30;99.90
2062;DHT22;11070;51.336;12.340;2022-08-05T14:07:51;34.90;99.90
2062;DHT22;11070;51.336;12.340;2022-08-05T14:10:22;34.10;99.90
2062;DHT22;11070;51.336;12.340;2022-08-05T14:12:52;33.60;99.90
2062;DHT22;11070;51.336;12.340;2022-08-05T14:15:18;33.50;99.90
2062;DHT22;11070;51.336;12.340;2022-08-05T14:17:48;33.20;99.90
2062;DHT22;11070;51.336;12.340;2022-08-05T14:20:15;33.20;99.90
2062;DHT22;11070;51.336;12.340;2022-08-05T14:22:41;33.10;99.90
2062;DHT22;11070;51.336;12.340;2022-08-05T14:25:09;32.80;99.90
2062;DHT22;11070;51.336;12.340;2022-08-05T14:27:39;32.80;99.90
2062;DHT22;11070;51.336;12.340;2022-08-05T14:30:14;33.30;99.90
2062;DHT22;11070;51.336;12.340;2022-08-05T14:32:41;33.30;99.90
2062;DHT22;11070;51.336;12.340;2022-08-05T14:35:08;33.40;99.90
2062;DHT22;11070;51.336;12.340;2022-08-05T14:37:34;33.60;99.90
2062;DHT22;11070;51.336;12.340;2022-08-05T14:40:01;33.80;99.90
2062;DHT22;11070;51.336;12.340;2022-08-05T14:42:27;34.00;99.90
2062;DHT22;11070;51.336;12.340;2022-08-05T14:44:53;34.00;99.90
2062;DHT22;11070;51.336;12.340;2022-08-05T14:47:23;33.60;99.90
2062;DHT22;11070;51.336;12.340;2022-08-05T14:49:51;33.30;99.90
2062;DHT22;11070;51.336;12.340;2022-08-05T14:52:17;33.00;99.90
2062;DHT22;11070;51.336;12.340;2022-08-05T14:54:44;32.60;99.90
2062;DHT22;11070;51.336;12.340;2022-08-05T14:57:10;32.50;99.90
2062;DHT22;11070;51.336;12.340;2022-08-05T14:59:36;32.10;99.90
2062;DHT22;11070;51.336;12.340;2022-08-05T15:02:03;32.20;99.90
2062;DHT22;11070;51.336;12.340;2022-08-05T15:04:29;32.70;99.90
2062;DHT22;11070;51.336;12.340;2022-08-05T15:06:55;33.00;99.90
2062;DHT22;11070;51.336;12.340;2022-08-05T15:09:21;32.90;99.90
2062;DHT22;11070;51.336;12.340;2022-08-05T15:11:47;32.80;99.90
2062;DHT22;11070;51.336;12.340;2022-08-05T15:14:13;32.80;99.90
2062;DHT22;11070;51.336;12.340;2022-08-05T15:16:44;32.70;99.90
2062;DHT22;11070;51.336;12.340;2022-08-05T15:19:10;32.40;99.90
2062;DHT22;11070;51.336;12.340;2022-08-05T15:21:36;32.10;99.90
2062;DHT22;11070;51.336;12.340;2022-08-05T15:24:01;31.60;99.90
2062;DHT22;11070;51.336;12.340;2022-08-05T15:26:27;31.30;99.90
2062;DHT22;11070;51.336;12.340;2022-08-05T15:28:53;31.00;99.90
2062;DHT22;11070;51.336;12.340;2022-08-05T15:31:19;30.90;99.90
2062;DHT22;11070;51.336;12.340;2022-08-05T15:33:45;30.60;99.90
2062;DHT22;11070;51.336;12.340;2022-08-05T15:36:10;30.00;99.90
2062;DHT22;11070;51.336;12.340;2022-08-05T15:38:36;29.60;99.90
2062;DHT22;11070;51.336;12.340;2022-08-05T15:41:02;29.20;99.90
2062;DHT22;11070;51.336;12.340;2022-08-05T15:43:28;28.50;99.90
2062;DHT22;11070;51.336;12.340;2022-08-05T15:45:53;27.50;99.90
2062;DHT22;11070;51.336;12.340;2022-08-05T15:48:19;27.40;1.00
2062;DHT22;11070;51.336;12.340;2022-08-05T15:50:46;27.60;99.90
2062;DHT22;11070;51.336;12.340;2022-08-05T15:53:13;27.70;99.90
2062;DHT22;11070;51.336;12.340;2022-08-05T15:55:40;27.50;99.90
2062;DHT22;11070;51.336;12.340;2022-08-05T15:58:24;27.40;99.90
2062;DHT22;11070;51.336;12.340;2022-08-05T16:00:55;26.70;1.00
2062;DHT22;11070;51.336;12.340;2022-08-05T16:09:02;26.60;1.00
2062;DHT22;11070;51.336;12.340;2022-08-05T16:11:28;26.00;1.00
2062;DHT22;11070;51.336;12.340;2022-08-05T16:13:54;25.30;1.00
2062;DHT22;11070;51.336;12.340;2022-08-05T16:16:19;24.80;99.90
2062;DHT22;11070;51.336;12.340;2022-08-05T16:18:48;24.60;99.90
2062;DHT22;11070;51.336;12.340;2022-08-05T16:21:14;24.40;1.00
2062;DHT22;11070;51.336;12.340;2022-08-05T16:23:42;24.50;99.90
2062;DHT22;11070;51.336;12.340;2022-08-05T16:26:09;24.30;1.00
2062;DHT22;11070;51.336;12.340;2022-08-05T16:28:38;23.90;1.00
2062;DHT22;11070;51.336;12.340;2022-08-05T16:31:06;23.80;99.90
2062;DHT22;11070;51.336;12.340;2022-08-05T16:33:32;23.50;1.00
2062;DHT22;11070;51.336;12.340;2022-08-05T16:36:01;23.20;99.90
2062;DHT22;11070;51.336;12.340;2022-08-05T16:38:30;23.10;1.00
2062;DHT22;11070;51.336;12.340;2022-08-05T16:40:57;22.90;1.00
2062;DHT22;11070;51.336;12.340;2022-08-05T16:43:25;22.60;99.90
2062;DHT22;11070;51.336;12.340;2022-08-05T16:45:52;22.50;1.00